Wagga Wagga, Australia
Current Conditions -  °F | °C
As of 11:00 PM on Saturday 01 Nov 2014 (Local Time) from YSWG Reporting Station
Clear Clear  
Wind Chill: 52°   Ceiling: Unl
Heat Index: 52°   Visibility: 6mi
Dew Point: 36°   Wind: 14mph
Humidity: 54%   Direction: 220°SW
Pressure: 30"   Gusts: NA
Location:  35.11°S, 147.37°E
Report Text: YSWG 011200Z 22012KT CAVOK 11/02 Q1016
Loading
Personal Weather Stations






























Interactive Weather Map
Tropical Storm Tracking
New forecast layout! Learn more

10-Day Weather Forecast

Advertisements
Track Severe Weather on mobile